Accueil
METAR-TAF:

METAR-TAF

Aéroports :

Passo della Cisa, Italie

latitude: 44-26N, longitude: 009-56E, altitude: 1039 m

Observation

Le bulletin a été fait il y a 5 heures et 13 minutes, à 16:55 UTC
Vent 5 kt de sud-ouest
Température 7°C
Humidité 87%
Pression 1019 hPa
Visibilité: 0200 m
brouillard

METAR: LIMT 241655Z 22005KT 0200 FG VV/// 07/05 Q1019 RMK MON INVIS VAL INVIS VIS MIN 0200

Heure: 23:08 (22:08 UTC)


TAF: absent

Observations et prévisions météorologiques de plus de 4000 aéroports (messages METAR et TAF).

Les stations disponibles sont représentées par des disques jaunes et rouges sur la carte.

Passer la souris dessus pour voir le nom de la station.

Cliquer dessus pour voir les observations et prévisions météorologiques.

Pour changer de carte: cliquez sur les boutons verts avec une croix noire pour zoomer, sur le bouton vert avec un tiret pour effectuer un zoom arrière, ou sur les flèches vertes pour les cartes adjacentes.


METAR-TAF: